createdAt,value
2022-11-04T00:00:00.292Z,24.4
2022-11-04T00:01:05.139Z,24.4
2022-11-04T00:02:01.538Z,24.4
2022-11-04T00:03:00.255Z,24.4
2022-11-04T00:04:00.269Z,24.4
2022-11-04T00:05:00.248Z,24.0
2022-11-04T00:06:00.655Z,24.0
2022-11-04T00:07:00.267Z,24.0
2022-11-04T00:08:00.210Z,24.0
2022-11-04T00:09:00.231Z,24.6
2022-11-04T00:10:00.260Z,24.6
2022-11-04T00:11:00.619Z,24.6
2022-11-04T00:12:00.217Z,24.6
2022-11-04T00:13:00.228Z,24.6
2022-11-04T00:14:00.605Z,20.9
2022-11-04T00:15:00.233Z,20.9
2022-11-04T00:16:00.690Z,20.9
2022-11-04T00:17:00.679Z,20.9
2022-11-04T00:18:00.216Z,20.9
2022-11-04T00:19:00.451Z,23.5
2022-11-04T00:20:00.252Z,23.5
2022-11-04T00:21:00.229Z,23.5
2022-11-04T00:22:00.232Z,23.5
2022-11-04T00:23:00.256Z,23.5
2022-11-04T00:24:00.286Z,25.2
2022-11-04T00:25:00.636Z,25.2
2022-11-04T00:26:00.222Z,25.2
2022-11-04T00:27:00.240Z,25.2
2022-11-04T00:28:03.246Z,25.2
2022-11-04T00:29:00.230Z,24.2
2022-11-04T00:30:00.860Z,24.2
2022-11-04T00:31:02.442Z,24.2
2022-11-04T00:32:00.281Z,24.2
2022-11-04T00:33:00.239Z,24.2
2022-11-04T00:34:00.314Z,23.5
2022-11-04T00:35:00.235Z,23.5
2022-11-04T00:36:00.222Z,23.5
2022-11-04T00:37:00.215Z,23.5
2022-11-04T00:38:00.295Z,23.5
2022-11-04T00:39:00.227Z,24.0
2022-11-04T00:40:00.268Z,24.0
2022-11-04T00:41:00.224Z,24.0
2022-11-04T00:42:00.306Z,24.0
2022-11-04T00:43:00.254Z,24.0
2022-11-04T00:44:02.804Z,21.2
2022-11-04T00:45:00.547Z,21.2
2022-11-04T00:46:00.212Z,21.2
2022-11-04T00:47:00.329Z,21.2
2022-11-04T00:48:00.509Z,21.2
2022-11-04T00:49:00.573Z,20.6
2022-11-04T00:50:00.255Z,20.6
2022-11-04T00:51:00.289Z,20.6
2022-11-04T00:52:01.301Z,20.6
2022-11-04T00:53:01.663Z,20.6
2022-11-04T00:54:00.308Z,22.8
2022-11-04T00:55:00.308Z,22.8
2022-11-04T00:56:00.254Z,22.8
2022-11-04T00:57:00.349Z,22.8
2022-11-04T00:58:00.259Z,22.8
2022-11-04T00:59:00.250Z,20.8
2022-11-04T01:00:00.247Z,20.8
2022-11-04T01:01:00.319Z,20.8
2022-11-04T01:02:00.755Z,20.8
2022-11-04T01:03:00.228Z,20.8
2022-11-04T01:04:00.328Z,20.3
2022-11-04T01:05:00.289Z,20.3
2022-11-04T01:06:00.323Z,20.3
2022-11-04T01:07:01.166Z,20.3
2022-11-04T01:08:00.225Z,20.3
2022-11-04T01:09:05.213Z,20.9
2022-11-04T01:10:00.251Z,20.9
2022-11-04T01:11:02.359Z,20.9
2022-11-04T01:12:00.285Z,20.9
2022-11-04T01:13:00.393Z,20.9
2022-11-04T01:14:00.589Z,23.5
2022-11-04T01:15:00.240Z,23.5
2022-11-04T01:16:02.512Z,23.5
2022-11-04T01:17:00.229Z,23.5
2022-11-04T01:18:00.220Z,23.5
2022-11-04T01:19:00.915Z,20.9
2022-11-04T01:20:00.288Z,20.9
2022-11-04T01:21:01.875Z,20.9
2022-11-04T01:22:00.220Z,20.9
2022-11-04T01:23:00.227Z,20.9
2022-11-04T01:24:00.308Z,18.3
2022-11-04T01:25:00.473Z,18.3
2022-11-04T01:26:00.307Z,18.3
2022-11-04T01:27:01.306Z,18.3
2022-11-04T01:28:00.215Z,18.3
2022-11-04T01:29:00.684Z,19.9
2022-11-04T01:30:00.283Z,19.9
2022-11-04T01:31:11.322Z,19.9
2022-11-04T01:32:00.335Z,19.9
2022-11-04T01:33:00.224Z,19.9
2022-11-04T01:34:00.263Z,20.0
2022-11-04T01:35:00.224Z,20.0
2022-11-04T01:36:00.625Z,20.0
2022-11-04T01:37:00.244Z,20.0
2022-11-04T01:38:00.229Z,20.0
2022-11-04T01:39:00.289Z,22.8
2022-11-04T01:40:00.519Z,22.8
2022-11-04T01:41:00.402Z,22.8
2022-11-04T01:42:00.322Z,22.8
2022-11-04T01:43:00.259Z,22.8
2022-11-04T01:44:13.321Z,21.6
2022-11-04T01:45:00.353Z,21.6
2022-11-04T01:46:01.258Z,21.6
2022-11-04T01:47:00.309Z,21.6
2022-11-04T01:48:09.811Z,21.6
2022-11-04T01:49:17.340Z,20.4
2022-11-04T01:50:13.066Z,20.4
2022-11-04T01:51:00.310Z,20.4
2022-11-04T01:52:07.988Z,20.4
2022-11-04T01:53:14.537Z,20.4
2022-11-04T01:54:01.375Z,20.2
2022-11-04T01:55:04.362Z,20.2
2022-11-04T01:56:05.510Z,20.2
2022-11-04T01:57:04.566Z,20.2
2022-11-04T01:58:06.652Z,20.2
2022-11-04T01:59:06.381Z,21.6
2022-11-04T02:00:03.925Z,21.6
2022-11-04T02:01:00.747Z,21.6
2022-11-04T02:02:00.679Z,21.6
2022-11-04T02:03:07.680Z,21.6
2022-11-04T02:04:00.728Z,20.6
2022-11-04T02:05:00.309Z,20.6
2022-11-04T02:06:01.753Z,20.6
2022-11-04T02:07:04.076Z,20.6
2022-11-04T02:08:04.559Z,20.6
2022-11-04T02:09:00.261Z,20.4
2022-11-04T02:10:01.272Z,20.4
2022-11-04T02:11:02.410Z,20.4
2022-11-04T02:12:00.280Z,20.4
2022-11-04T02:13:03.876Z,20.4
2022-11-04T02:14:01.085Z,19.7
2022-11-04T02:15:00.339Z,19.7
2022-11-04T02:16:19.832Z,19.7
2022-11-04T02:17:20.137Z,19.7
2022-11-04T02:18:17.657Z,19.7
2022-11-04T02:19:20.146Z,21.7
2022-11-04T02:20:20.126Z,21.7
2022-11-04T02:21:13.435Z,21.7
2022-11-04T02:22:16.086Z,21.7
2022-11-04T02:23:04.533Z,21.7
2022-11-04T02:24:11.195Z,19.3
2022-11-04T02:25:14.558Z,19.3
2022-11-04T02:26:10.165Z,19.3
2022-11-04T02:27:09.349Z,19.3
2022-11-04T02:28:13.461Z,19.3
2022-11-04T02:29:13.438Z,19.3
2022-11-04T02:30:05.457Z,19.3
2022-11-04T02:31:16.380Z,19.3
2022-11-04T02:32:10.177Z,19.3
2022-11-04T02:33:11.578Z,19.3
2022-11-04T02:34:17.493Z,18.8
2022-11-04T02:35:11.379Z,18.8
2022-11-04T02:36:14.637Z,18.8
2022-11-04T02:37:11.184Z,18.8
2022-11-04T02:38:10.163Z,18.8
2022-11-04T02:39:09.966Z,20.1
2022-11-04T02:40:13.482Z,20.1
2022-11-04T02:41:05.363Z,20.1
2022-11-04T02:42:09.664Z,20.1
2022-11-04T02:43:11.513Z,20.1
2022-11-04T02:44:18.307Z,19.2
2022-11-04T02:45:11.564Z,19.2
2022-11-04T02:46:20.157Z,19.2
2022-11-04T02:47:07.469Z,19.2
2022-11-04T02:48:06.835Z,19.2
2022-11-04T02:49:06.860Z,19.1
2022-11-04T02:50:09.606Z,19.1
2022-11-04T02:51:14.732Z,19.1
2022-11-04T02:52:07.189Z,19.1
2022-11-04T02:53:09.798Z,19.1
2022-11-04T02:54:10.175Z,21.7
2022-11-04T02:55:06.076Z,21.7
2022-11-04T02:56:03.001Z,21.7
2022-11-04T02:57:04.797Z,21.7
2022-11-04T02:58:04.916Z,21.7
2022-11-04T02:59:05.244Z,20.4
2022-11-04T03:00:06.132Z,20.4
2022-11-04T03:01:03.822Z,20.4
2022-11-04T03:02:04.511Z,20.4
2022-11-04T03:03:06.168Z,20.4
2022-11-04T03:04:07.995Z,21.1
2022-11-04T03:05:04.465Z,21.1
2022-11-04T03:06:03.591Z,21.1
2022-11-04T03:07:03.365Z,21.1
2022-11-04T03:08:04.240Z,21.1
2022-11-04T03:09:02.873Z,20.1
2022-11-04T03:10:05.898Z,20.1
2022-11-04T03:11:05.473Z,20.1
2022-11-04T03:12:06.299Z,20.1
2022-11-04T03:13:08.139Z,20.1
2022-11-04T03:14:17.668Z,19.2
2022-11-04T03:15:05.143Z,19.2
2022-11-04T03:16:05.378Z,19.2
2022-11-04T03:17:05.407Z,19.2
2022-11-04T03:18:20.131Z,19.2
2022-11-04T03:19:10.627Z,20.1
2022-11-04T03:20:06.139Z,20.1
2022-11-04T03:21:04.309Z,20.1
2022-11-04T03:22:06.801Z,20.1
2022-11-04T03:23:00.304Z,20.1
2022-11-04T03:24:02.014Z,18.7
2022-11-04T03:25:01.803Z,18.7
2022-11-04T03:26:11.770Z,18.7
2022-11-04T03:27:08.710Z,18.7
2022-11-04T03:28:09.734Z,18.7
2022-11-04T03:29:11.187Z,19.0
2022-11-04T03:30:06.714Z,19.0
2022-11-04T03:31:03.806Z,19.0
2022-11-04T03:32:17.726Z,19.0
2022-11-04T03:33:11.504Z,19.0
2022-11-04T03:34:00.234Z,18.5
2022-11-04T03:35:00.289Z,18.5
2022-11-04T03:36:00.596Z,18.5
2022-11-04T03:37:00.406Z,18.5
2022-11-04T03:38:01.027Z,18.5
2022-11-04T03:39:00.319Z,20.5
2022-11-04T03:40:01.501Z,20.5
2022-11-04T03:41:02.194Z,20.5
2022-11-04T03:42:05.302Z,20.5
2022-11-04T03:43:08.466Z,20.5
2022-11-04T03:44:00.467Z,18.9
2022-11-04T03:45:00.565Z,18.9
2022-11-04T03:46:00.347Z,18.9
2022-11-04T03:47:00.528Z,18.9
2022-11-04T03:48:00.542Z,18.9
2022-11-04T03:49:01.826Z,19.2
2022-11-04T03:50:08.390Z,19.2
2022-11-04T03:51:00.458Z,19.2
2022-11-04T03:52:00.282Z,19.2
2022-11-04T03:53:00.370Z,19.2
2022-11-04T03:54:00.577Z,21.7
2022-11-04T03:55:00.880Z,21.7
2022-11-04T03:56:20.124Z,21.7
2022-11-04T03:57:10.169Z,21.7
2022-11-04T03:58:05.652Z,21.7
2022-11-04T03:59:10.991Z,21.0
2022-11-04T04:00:04.116Z,21.0
2022-11-04T04:01:17.646Z,21.0
2022-11-04T04:02:07.651Z,21.0
2022-11-04T04:03:14.854Z,21.0
2022-11-04T04:04:14.020Z,18.7
2022-11-04T04:05:08.175Z,18.7
2022-11-04T04:06:12.127Z,18.7
2022-11-04T04:07:04.357Z,18.7
2022-11-04T04:08:17.889Z,18.7
2022-11-04T04:09:12.239Z,19.7
2022-11-04T04:10:09.423Z,19.7
2022-11-04T04:11:11.194Z,19.7
2022-11-04T04:12:06.565Z,19.7
2022-11-04T04:13:02.405Z,19.7
2022-11-04T04:14:06.069Z,25.4
2022-11-04T04:15:07.316Z,25.4
2022-11-04T04:16:07.902Z,25.4
2022-11-04T04:17:04.794Z,25.4
2022-11-04T04:18:04.958Z,25.4
2022-11-04T04:19:03.958Z,22.6
2022-11-04T04:20:05.327Z,22.6
2022-11-04T04:21:04.854Z,22.6
2022-11-04T04:22:09.833Z,22.6
2022-11-04T04:23:05.499Z,22.6
2022-11-04T04:24:03.846Z,21.3
2022-11-04T04:25:05.470Z,21.3
2022-11-04T04:26:04.281Z,21.3
2022-11-04T04:27:00.901Z,21.3
2022-11-04T04:28:02.568Z,21.3
2022-11-04T04:29:04.223Z,20.8
2022-11-04T04:30:06.378Z,20.8
2022-11-04T04:31:01.516Z,20.8
2022-11-04T04:32:02.039Z,20.8
2022-11-04T04:33:07.118Z,20.8
2022-11-04T04:34:00.511Z,21.7
2022-11-04T04:35:00.426Z,21.7
2022-11-04T04:36:00.986Z,21.7
2022-11-04T04:37:07.066Z,21.7
2022-11-04T04:38:05.809Z,21.7
2022-11-04T04:39:05.087Z,21.3
2022-11-04T04:40:00.335Z,21.3
2022-11-04T04:41:08.014Z,21.3
2022-11-04T04:42:01.086Z,21.3
2022-11-04T04:43:00.681Z,21.3
2022-11-04T04:44:01.051Z,24.1
2022-11-04T04:45:01.944Z,24.1
2022-11-04T04:46:01.245Z,24.1
2022-11-04T04:47:01.693Z,24.1
2022-11-04T04:48:00.597Z,24.1
2022-11-04T04:49:08.300Z,23.8
2022-11-04T04:50:00.981Z,23.8
2022-11-04T04:51:00.281Z,23.8
2022-11-04T04:52:02.392Z,23.8
2022-11-04T04:53:00.653Z,23.8
2022-11-04T04:54:00.261Z,23.8
2022-11-04T04:55:00.223Z,23.8
2022-11-04T04:56:00.224Z,23.8
2022-11-04T04:57:00.239Z,23.8
2022-11-04T04:58:00.201Z,23.8
2022-11-04T04:59:00.246Z,24.8
2022-11-04T05:00:00.434Z,24.8
2022-11-04T05:01:00.331Z,24.8
2022-11-04T05:02:00.487Z,24.8
2022-11-04T05:03:00.265Z,24.8
2022-11-04T05:04:00.240Z,25.1
2022-11-04T05:05:00.617Z,25.1
2022-11-04T05:06:00.260Z,25.1
2022-11-04T05:07:00.233Z,25.1
2022-11-04T05:08:04.261Z,25.1
2022-11-04T05:09:00.213Z,26.2
2022-11-04T05:10:00.354Z,26.2
2022-11-04T05:11:00.244Z,26.2
2022-11-04T05:12:00.350Z,26.2
2022-11-04T05:13:00.923Z,26.2
2022-11-04T05:14:00.298Z,22.9
2022-11-04T05:15:00.218Z,22.9
2022-11-04T05:16:06.061Z,22.9
2022-11-04T05:17:00.366Z,22.9
2022-11-04T05:18:01.371Z,22.9
2022-11-04T05:19:00.215Z,28.8
2022-11-04T05:20:00.239Z,28.8
2022-11-04T05:21:04.561Z,28.8
2022-11-04T05:22:00.280Z,28.8
2022-11-04T05:23:00.264Z,28.8
2022-11-04T05:24:00.392Z,26.1
2022-11-04T05:25:00.246Z,26.1
2022-11-04T05:26:00.253Z,26.1
2022-11-04T05:27:00.214Z,26.1
2022-11-04T05:28:00.597Z,26.1
2022-11-04T05:29:00.248Z,26.9
2022-11-04T05:30:00.335Z,26.9
2022-11-04T05:31:03.281Z,26.9
2022-11-04T05:32:00.298Z,26.9
2022-11-04T05:33:04.583Z,26.9
2022-11-04T05:34:00.223Z,25.9
2022-11-04T05:35:00.224Z,25.9
2022-11-04T05:36:09.627Z,25.9
2022-11-04T05:37:00.221Z,25.9
2022-11-04T05:38:00.293Z,25.9
2022-11-04T05:39:00.213Z,27.1
2022-11-04T05:40:00.410Z,27.1
2022-11-04T05:41:00.338Z,27.1
2022-11-04T05:42:00.246Z,27.1
2022-11-04T05:43:00.226Z,27.1
2022-11-04T05:44:02.075Z,27.6
2022-11-04T05:45:00.233Z,27.6
2022-11-04T05:46:00.889Z,27.6
2022-11-04T05:47:00.216Z,27.6
2022-11-04T05:48:02.733Z,27.6
2022-11-04T05:49:00.218Z,30.7
2022-11-04T05:50:00.308Z,30.7
2022-11-04T05:51:00.222Z,30.7
2022-11-04T05:52:00.243Z,30.7
2022-11-04T05:53:00.451Z,30.7
2022-11-04T05:54:00.282Z,29.2
2022-11-04T05:55:00.246Z,29.2
2022-11-04T05:56:00.235Z,29.2
2022-11-04T05:57:00.212Z,29.2
2022-11-04T05:58:00.234Z,29.2
2022-11-04T05:59:00.218Z,31.5
2022-11-04T06:00:00.264Z,31.5
2022-11-04T06:01:11.160Z,31.5
2022-11-04T06:02:00.475Z,31.5
2022-11-04T06:03:00.448Z,31.5
2022-11-04T06:04:01.592Z,30.1
2022-11-04T06:05:00.251Z,30.1
2022-11-04T06:06:00.214Z,30.1
2022-11-04T06:07:00.257Z,30.1
2022-11-04T06:08:00.218Z,30.1
2022-11-04T06:09:01.403Z,30.2
2022-11-04T06:10:00.452Z,30.2
2022-11-04T06:11:00.210Z,30.2
2022-11-04T06:12:00.212Z,30.2
2022-11-04T06:13:00.201Z,30.2
2022-11-04T06:14:00.729Z,31.5
2022-11-04T06:15:00.371Z,31.5
2022-11-04T06:16:00.269Z,31.5
2022-11-04T06:17:00.449Z,31.5
2022-11-04T06:18:00.219Z,31.5
2022-11-04T06:19:05.739Z,29.3
2022-11-04T06:20:00.360Z,29.3
2022-11-04T06:21:08.496Z,29.3
2022-11-04T06:22:00.224Z,29.3
2022-11-04T06:23:00.207Z,29.3
2022-11-04T06:24:00.242Z,34.2
2022-11-04T06:25:00.239Z,34.2
2022-11-04T06:26:00.348Z,34.2
2022-11-04T06:27:00.244Z,34.2
2022-11-04T06:28:00.209Z,34.2
2022-11-04T06:29:00.224Z,34.6
2022-11-04T06:30:00.352Z,34.6
2022-11-04T06:31:03.059Z,34.6
2022-11-04T06:32:00.208Z,34.6
2022-11-04T06:33:00.253Z,34.6
2022-11-04T06:34:00.412Z,36.7
2022-11-04T06:35:00.228Z,36.7
2022-11-04T06:36:02.493Z,36.7
2022-11-04T06:37:00.355Z,36.7
2022-11-04T06:38:00.216Z,36.7
2022-11-04T06:39:04.731Z,39.1
2022-11-04T06:40:00.258Z,39.1
2022-11-04T06:41:00.469Z,39.1
2022-11-04T06:42:02.678Z,39.1
2022-11-04T06:43:00.207Z,39.1
2022-11-04T06:44:00.228Z,37.3
2022-11-04T06:45:00.320Z,37.3
2022-11-04T06:46:01.399Z,37.3
2022-11-04T06:47:00.536Z,37.3
2022-11-04T06:48:00.270Z,37.3
2022-11-04T06:49:00.556Z,37.1
2022-11-04T06:50:00.238Z,37.1
2022-11-04T06:51:00.332Z,37.1
2022-11-04T06:52:00.265Z,37.1
2022-11-04T06:53:00.217Z,37.1
2022-11-04T06:54:00.455Z,35.6
2022-11-04T06:55:00.216Z,35.6
2022-11-04T06:56:02.072Z,35.6
2022-11-04T06:57:00.268Z,35.6
2022-11-04T06:58:00.241Z,35.6
2022-11-04T06:59:00.551Z,37.6
2022-11-04T07:00:00.256Z,37.6
2022-11-04T07:01:00.366Z,37.6
2022-11-04T07:02:00.386Z,37.6
2022-11-04T07:03:00.236Z,37.6
2022-11-04T07:04:00.849Z,37.3
2022-11-04T07:05:00.405Z,37.3
2022-11-04T07:06:04.699Z,37.3
2022-11-04T07:07:00.219Z,37.3
2022-11-04T07:08:00.311Z,37.3
2022-11-04T07:09:01.571Z,37.3
2022-11-04T07:10:00.288Z,37.3
2022-11-04T07:11:00.421Z,37.3
2022-11-04T07:12:00.222Z,37.3
2022-11-04T07:13:00.217Z,37.3
2022-11-04T07:14:00.240Z,36.9
2022-11-04T07:15:00.223Z,36.9
2022-11-04T07:16:03.182Z,36.9
2022-11-04T07:17:00.217Z,36.9
2022-11-04T07:18:00.230Z,36.9
2022-11-04T07:19:00.317Z,35.7
2022-11-04T07:20:00.687Z,35.7
2022-11-04T07:21:04.440Z,35.7
2022-11-04T07:22:00.220Z,35.7
2022-11-04T07:23:00.212Z,35.7
2022-11-04T07:24:00.914Z,32.3
2022-11-04T07:25:00.232Z,32.3
2022-11-04T07:26:01.488Z,32.3
2022-11-04T07:28:02.343Z,32.3
2022-11-04T07:29:00.557Z,31.5
2022-11-04T07:30:00.374Z,31.5
2022-11-04T07:31:01.563Z,31.5
2022-11-04T07:32:00.273Z,31.5
2022-11-04T07:33:00.245Z,31.5
2022-11-04T07:34:00.225Z,35.7
2022-11-04T07:35:00.260Z,35.7
2022-11-04T07:36:04.166Z,35.7
2022-11-04T07:37:00.215Z,35.7
2022-11-04T07:38:00.344Z,35.7
2022-11-04T07:39:00.262Z,30.5
2022-11-04T07:40:00.342Z,30.5
2022-11-04T07:41:00.278Z,30.5
2022-11-04T07:42:00.211Z,30.5
2022-11-04T07:43:00.585Z,30.5
2022-11-04T07:44:00.214Z,27.5
2022-11-04T07:45:00.392Z,27.5
2022-11-04T07:46:02.447Z,27.5
2022-11-04T07:47:00.221Z,27.5
2022-11-04T07:48:00.253Z,27.5
2022-11-04T07:49:00.237Z,26.8
2022-11-04T07:50:00.332Z,26.8
2022-11-04T07:51:00.889Z,26.8
2022-11-04T07:52:00.237Z,26.8
2022-11-04T07:53:00.229Z,26.8
2022-11-04T07:54:00.263Z,24.0
2022-11-04T07:55:00.239Z,24.0
2022-11-04T07:56:04.216Z,24.0
2022-11-04T07:57:00.279Z,24.0
2022-11-04T07:58:00.207Z,24.0
2022-11-04T07:59:00.258Z,27.2
2022-11-04T08:00:00.348Z,27.2
2022-11-04T08:01:02.768Z,27.2
2022-11-04T08:02:00.359Z,27.2
2022-11-04T08:03:00.323Z,27.2
2022-11-04T08:04:00.215Z,23.6
2022-11-04T08:05:00.213Z,23.6
2022-11-04T08:06:01.855Z,23.6
2022-11-04T08:07:00.368Z,23.6
2022-11-04T08:08:00.268Z,23.6
2022-11-04T08:09:00.309Z,25.3
2022-11-04T08:10:00.294Z,25.3
2022-11-04T08:11:05.108Z,25.3
2022-11-04T08:12:00.238Z,25.3
2022-11-04T08:13:00.214Z,25.3
2022-11-04T08:14:02.884Z,25.5
2022-11-04T08:15:00.262Z,25.5
2022-11-04T08:16:02.061Z,25.5
2022-11-04T08:17:00.224Z,25.5
2022-11-04T08:18:00.226Z,25.5
2022-11-04T08:19:00.326Z,26.5
2022-11-04T08:20:00.299Z,26.5
2022-11-04T08:21:00.845Z,26.5
2022-11-04T08:22:00.266Z,26.5
2022-11-04T08:23:00.212Z,26.5
2022-11-04T08:24:00.537Z,27.0
2022-11-04T08:25:00.298Z,27.0
2022-11-04T08:26:00.633Z,27.0
2022-11-04T08:27:00.930Z,27.0
2022-11-04T08:28:01.302Z,27.0
2022-11-04T08:29:00.245Z,25.8
2022-11-04T08:30:00.448Z,25.8
2022-11-04T08:31:02.588Z,25.8
2022-11-04T08:32:00.449Z,25.8
2022-11-04T08:33:00.241Z,25.8
2022-11-04T08:34:00.489Z,24.2
2022-11-04T08:35:00.259Z,24.2
2022-11-04T08:36:05.237Z,24.2
2022-11-04T08:37:00.232Z,24.2
2022-11-04T08:38:00.217Z,24.2
2022-11-04T08:39:03.251Z,27.3
2022-11-04T08:40:00.565Z,27.3
2022-11-04T08:41:02.962Z,27.3
2022-11-04T08:42:00.239Z,27.3
2022-11-04T08:43:00.237Z,27.3
2022-11-04T08:44:00.343Z,26.7
2022-11-04T08:45:00.243Z,26.7
2022-11-04T08:46:01.046Z,26.7
2022-11-04T08:47:02.065Z,26.7
2022-11-04T08:48:05.922Z,26.7
2022-11-04T08:49:01.150Z,30.1
2022-11-04T08:50:00.237Z,30.1
2022-11-04T08:51:01.473Z,30.1
2022-11-04T08:52:00.221Z,30.1
2022-11-04T08:53:00.626Z,30.1
2022-11-04T08:54:00.703Z,24.2
2022-11-04T08:55:00.260Z,24.2
2022-11-04T08:56:08.864Z,24.2
2022-11-04T08:57:01.342Z,24.2
2022-11-04T08:58:01.312Z,24.2
2022-11-04T08:59:00.860Z,23.7
2022-11-04T09:00:00.294Z,23.7
2022-11-04T09:01:02.425Z,23.7
2022-11-04T09:02:00.309Z,23.7
2022-11-04T09:03:00.217Z,23.7
2022-11-04T09:04:01.036Z,27.7
2022-11-04T09:05:00.239Z,27.7
2022-11-04T09:06:00.363Z,27.7
2022-11-04T09:07:07.704Z,27.7
2022-11-04T09:08:00.217Z,27.7
2022-11-04T09:09:00.416Z,25.1
2022-11-04T09:10:00.332Z,25.1
2022-11-04T09:11:00.240Z,25.1
2022-11-04T09:12:00.318Z,25.1
2022-11-04T09:13:00.226Z,25.1
2022-11-04T09:14:00.609Z,24.4
2022-11-04T09:15:00.387Z,24.4
2022-11-04T09:16:00.311Z,24.4
2022-11-04T09:17:00.212Z,24.4
2022-11-04T09:18:00.279Z,24.4
2022-11-04T09:19:00.696Z,24.4
2022-11-04T09:20:00.257Z,24.4
2022-11-04T09:21:01.271Z,24.4
2022-11-04T09:22:00.225Z,24.4
2022-11-04T09:23:00.250Z,22.1
2022-11-04T09:24:00.264Z,22.1
2022-11-04T09:25:00.400Z,22.1
2022-11-04T09:26:08.107Z,22.1
2022-11-04T09:27:00.240Z,22.1
2022-11-04T09:28:00.241Z,23.0
2022-11-04T09:29:00.230Z,23.0
2022-11-04T09:30:00.368Z,23.0
2022-11-04T09:31:04.448Z,23.0
2022-11-04T09:32:00.266Z,23.0
2022-11-04T09:33:00.267Z,27.7
2022-11-04T09:34:00.375Z,27.7
2022-11-04T09:35:00.234Z,27.7
2022-11-04T09:36:00.448Z,27.7
2022-11-04T09:37:00.594Z,27.7
2022-11-04T09:38:00.237Z,21.2
2022-11-04T09:39:00.220Z,21.2
2022-11-04T09:40:00.289Z,21.2
2022-11-04T09:41:00.729Z,21.2
2022-11-04T09:42:20.179Z,21.2
2022-11-04T09:43:13.161Z,20.7
2022-11-04T09:44:17.861Z,20.7
2022-11-04T09:45:21.156Z,20.7
2022-11-04T09:46:01.860Z,20.7
2022-11-04T09:47:02.007Z,20.7
2022-11-04T09:48:05.179Z,24.7
2022-11-04T09:49:03.962Z,24.7
2022-11-04T09:50:01.596Z,24.7
2022-11-04T09:51:03.749Z,24.7
2022-11-04T09:52:03.591Z,24.7
2022-11-04T09:53:08.850Z,24.1
2022-11-04T09:54:09.672Z,24.1
2022-11-04T09:55:15.981Z,24.1
2022-11-04T09:56:04.587Z,24.1
2022-11-04T09:57:00.913Z,24.1
2022-11-04T09:58:00.315Z,21.9
2022-11-04T09:59:03.365Z,21.9
2022-11-04T10:00:00.531Z,21.9
2022-11-04T10:01:09.058Z,21.9
2022-11-04T10:02:10.253Z,21.9
2022-11-04T10:03:17.962Z,26.6
2022-11-04T10:04:10.196Z,26.6
2022-11-04T10:05:13.174Z,26.6
2022-11-04T10:06:15.474Z,26.6
2022-11-04T10:07:20.175Z,26.6
2022-11-04T10:08:08.763Z,23.1
2022-11-04T10:09:09.810Z,23.1
2022-11-04T10:10:20.202Z,23.1
2022-11-04T10:11:05.597Z,23.1
2022-11-04T10:12:10.169Z,23.1
2022-11-04T10:13:17.516Z,26.2
2022-11-04T10:14:17.600Z,26.2
2022-11-04T10:15:20.130Z,26.2
2022-11-04T10:16:16.782Z,26.2
2022-11-04T10:17:03.480Z,26.2
2022-11-04T10:18:13.418Z,22.4
2022-11-04T10:19:13.969Z,22.4
2022-11-04T10:20:11.326Z,22.4
2022-11-04T10:21:10.170Z,22.4
2022-11-04T10:22:12.012Z,22.4
2022-11-04T10:23:16.965Z,23.8
2022-11-04T10:24:18.910Z,23.8
2022-11-04T10:25:14.861Z,23.8
2022-11-04T10:26:20.133Z,23.8
2022-11-04T10:27:04.129Z,23.8
2022-11-04T10:28:01.136Z,23.5
2022-11-04T10:29:04.107Z,23.5
2022-11-04T10:30:06.666Z,23.5
2022-11-04T10:31:01.526Z,23.5
2022-11-04T10:32:04.672Z,23.5
2022-11-04T10:33:13.433Z,22.5
2022-11-04T10:34:06.475Z,22.5
2022-11-04T10:35:06.067Z,22.5
2022-11-04T10:36:03.852Z,22.5
2022-11-04T10:37:01.142Z,22.5
2022-11-04T10:38:11.178Z,21.0
2022-11-04T10:39:03.806Z,21.0
2022-11-04T10:40:14.881Z,21.0
2022-11-04T10:41:06.960Z,21.0
2022-11-04T10:42:00.752Z,21.0
2022-11-04T10:43:03.455Z,22.6
2022-11-04T10:44:20.134Z,22.6
2022-11-04T10:45:00.600Z,22.6
2022-11-04T10:46:02.248Z,22.6
2022-11-04T10:47:20.145Z,22.6
2022-11-04T10:48:07.471Z,22.5
2022-11-04T10:49:09.572Z,22.5
2022-11-04T10:50:29.923Z,22.5
2022-11-04T10:51:00.269Z,22.5
2022-11-04T10:52:00.391Z,22.5
2022-11-04T10:53:09.916Z,25.9
2022-11-04T10:54:00.324Z,25.9
2022-11-04T10:55:00.498Z,25.9
2022-11-04T10:56:16.643Z,25.9
2022-11-04T10:57:00.551Z,25.9
2022-11-04T10:58:00.396Z,22.8
2022-11-04T10:59:20.055Z,22.8
2022-11-04T11:00:04.222Z,22.8
2022-11-04T11:01:20.195Z,22.8
2022-11-04T11:02:01.907Z,22.8
2022-11-04T11:03:00.224Z,24.1
2022-11-04T11:04:04.838Z,24.1
2022-11-04T11:05:12.905Z,24.1
2022-11-04T11:06:10.198Z,24.1
2022-11-04T11:07:03.108Z,24.1
2022-11-04T11:08:00.252Z,20.9
2022-11-04T11:09:10.216Z,20.9
2022-11-04T11:10:00.278Z,20.9
2022-11-04T11:11:00.271Z,20.9
2022-11-04T11:12:44.227Z,20.9
2022-11-04T11:13:20.129Z,22.2
2022-11-04T11:14:00.280Z,22.2
2022-11-04T11:15:20.160Z,22.2
2022-11-04T11:16:11.725Z,22.2
2022-11-04T11:17:13.421Z,22.2
2022-11-04T11:18:10.176Z,25.2
2022-11-04T11:19:10.171Z,25.2
2022-11-04T11:20:11.707Z,25.2
2022-11-04T11:21:03.541Z,25.2
2022-11-04T11:22:00.253Z,25.2
2022-11-04T11:23:04.631Z,23.3
2022-11-04T11:24:12.794Z,23.3
2022-11-04T11:25:20.130Z,23.3
2022-11-04T11:26:00.653Z,23.3
2022-11-04T11:27:08.359Z,23.3
2022-11-04T11:28:02.190Z,26.0
2022-11-04T11:29:00.229Z,26.0
2022-11-04T11:30:00.339Z,26.0
2022-11-04T11:31:01.498Z,26.0
2022-11-04T11:32:00.277Z,26.0
2022-11-04T11:33:13.709Z,22.0
2022-11-04T11:34:06.637Z,22.0
2022-11-04T11:35:02.350Z,22.0
2022-11-04T11:36:03.163Z,22.0
2022-11-04T11:37:00.834Z,22.0
2022-11-04T11:38:00.811Z,22.8
2022-11-04T11:39:04.545Z,22.8
2022-11-04T11:40:00.444Z,22.8
2022-11-04T11:41:24.749Z,22.8
2022-11-04T11:42:11.236Z,22.8
2022-11-04T11:43:01.112Z,22.0
2022-11-04T11:44:18.965Z,22.0
2022-11-04T11:45:00.389Z,22.0
2022-11-04T11:46:01.406Z,22.0
2022-11-04T11:47:03.971Z,22.0
2022-11-04T11:48:00.278Z,22.5
2022-11-04T11:49:03.036Z,22.5
2022-11-04T11:50:13.466Z,22.5
2022-11-04T11:51:00.328Z,22.5
2022-11-04T11:52:20.129Z,22.5
2022-11-04T11:53:18.012Z,20.4
2022-11-04T11:54:10.176Z,20.4
2022-11-04T11:55:05.209Z,20.4
2022-11-04T11:56:15.412Z,20.4
2022-11-04T11:57:14.413Z,20.4
2022-11-04T12:01:09.841Z,22.8
2022-11-04T12:02:00.384Z,22.8
2022-11-04T12:03:13.018Z,23.0
2022-11-04T12:06:19.253Z,23.0
2022-11-04T12:09:20.580Z,26.0
2022-11-04T12:10:23.829Z,26.0
2022-11-04T12:11:09.880Z,26.0
2022-11-04T12:12:16.407Z,26.0
2022-11-04T12:13:23.383Z,21.0
2022-11-04T12:14:09.106Z,21.0
2022-11-04T12:15:20.149Z,21.0
2022-11-04T12:16:11.193Z,21.0
2022-11-04T12:17:07.495Z,21.0
2022-11-04T12:18:13.394Z,21.1
2022-11-04T12:19:08.761Z,21.1
2022-11-04T12:20:14.934Z,21.1
2022-11-04T12:21:13.476Z,21.1
2022-11-04T12:22:15.345Z,21.1
2022-11-04T12:23:20.157Z,19.9
2022-11-04T12:24:13.441Z,19.9
2022-11-04T12:25:18.796Z,19.9
2022-11-04T12:26:16.810Z,19.9
2022-11-04T12:27:11.210Z,19.9
2022-11-04T12:28:10.180Z,20.5
2022-11-04T12:29:09.209Z,20.5
2022-11-04T12:30:11.814Z,20.5
2022-11-04T12:31:15.962Z,20.5
2022-11-04T12:32:13.420Z,20.5
2022-11-04T12:33:20.132Z,18.8
2022-11-04T12:34:20.155Z,18.8
2022-11-04T12:35:09.765Z,18.8
2022-11-04T12:36:10.613Z,18.8
2022-11-04T12:37:08.276Z,18.8
2022-11-04T12:38:15.829Z,20.7
2022-11-04T12:39:12.794Z,20.7
2022-11-04T12:40:20.152Z,20.7
2022-11-04T12:41:37.493Z,20.7
2022-11-04T12:42:20.968Z,20.7
2022-11-04T12:43:17.849Z,19.5
2022-11-04T12:44:14.797Z,19.5
2022-11-04T12:45:17.608Z,19.5
2022-11-04T12:46:08.623Z,19.5
2022-11-04T12:47:13.422Z,19.5
2022-11-04T12:48:06.391Z,20.2
2022-11-04T12:49:10.165Z,20.2
2022-11-04T12:50:17.180Z,20.2
2022-11-04T12:51:09.497Z,20.2
2022-11-04T12:52:18.231Z,20.2
2022-11-04T12:53:20.126Z,22.5
2022-11-04T12:54:00.203Z,22.5
2022-11-04T12:55:13.104Z,22.5
2022-11-04T12:56:06.587Z,22.5
2022-11-04T12:57:20.152Z,22.5
2022-11-04T12:58:13.300Z,22.5
2022-11-04T12:59:19.639Z,22.5
2022-11-04T13:00:08.199Z,22.5
2022-11-04T13:01:04.682Z,22.5
2022-11-04T13:02:12.666Z,22.5
2022-11-04T13:03:08.593Z,20.7
2022-11-04T13:04:16.574Z,20.7
2022-11-04T13:05:17.539Z,20.7
2022-11-04T13:06:04.671Z,20.7
2022-11-04T13:07:09.097Z,20.7
2022-11-04T13:08:14.241Z,21.3
2022-11-04T13:09:07.160Z,21.3
2022-11-04T13:10:07.546Z,21.3
2022-11-04T13:11:16.302Z,21.3
2022-11-04T13:12:11.221Z,21.3
2022-11-04T13:13:01.639Z,19.8
2022-11-04T13:14:09.686Z,19.8
2022-11-04T13:15:02.311Z,19.8
2022-11-04T13:16:05.675Z,19.8
2022-11-04T13:17:05.381Z,19.8
2022-11-04T13:18:05.564Z,20.9
2022-11-04T13:19:01.070Z,20.9
2022-11-04T13:20:06.024Z,20.9
2022-11-04T13:21:04.079Z,20.9
2022-11-04T13:22:08.899Z,20.9
2022-11-04T13:23:05.092Z,22.0
2022-11-04T13:24:14.261Z,22.0
2022-11-04T13:25:11.362Z,22.0
2022-11-04T13:26:03.758Z,22.0